createdAt,value
2018-12-24T00:02:03.595Z,102448.40
2018-12-24T00:04:32.652Z,102452.48
2018-12-24T00:07:01.667Z,102464.63
2018-12-24T00:09:31.170Z,102470.91
2018-12-24T00:12:07.049Z,102465.00
2018-12-24T00:14:29.521Z,102470.75
2018-12-24T00:16:58.619Z,102476.80
2018-12-24T00:19:27.675Z,102477.08
2018-12-24T00:21:56.726Z,102489.92
2018-12-24T00:24:26.099Z,102493.40
2018-12-24T00:26:55.990Z,102486.08
2018-12-24T00:29:25.061Z,102495.08
2018-12-24T00:31:54.969Z,102506.23
2018-12-24T00:34:24.699Z,102498.84
2018-12-24T00:36:54.906Z,102500.66
2018-12-24T00:39:24.075Z,102500.06
2018-12-24T00:41:53.230Z,102505.13
2018-12-24T00:44:22.575Z,102506.34
2018-12-24T00:46:51.601Z,102511.05
2018-12-24T00:49:20.689Z,102510.68
2018-12-24T00:51:50.098Z,102509.27
2018-12-24T00:54:19.297Z,102512.73
2018-12-24T00:56:48.427Z,102526.00
2018-12-24T00:59:17.508Z,102528.72
2018-12-24T01:01:48.920Z,102532.80
2018-12-24T01:04:16.893Z,102534.91
2018-12-24T01:06:46.072Z,102544.42
2018-12-24T01:09:15.499Z,102552.58
2018-12-24T01:11:45.569Z,102550.93
2018-12-24T01:14:14.714Z,102559.92
2018-12-24T01:16:43.790Z,102537.57
2018-12-24T01:19:12.850Z,102544.05
2018-12-24T01:21:41.962Z,102542.39
2018-12-24T01:24:10.986Z,102551.16
2018-12-24T01:26:40.077Z,102546.24
2018-12-24T01:29:09.278Z,102551.07
2018-12-24T01:31:38.378Z,102547.13
2018-12-24T01:34:07.452Z,102545.02
2018-12-24T01:36:36.549Z,102553.11
2018-12-24T01:39:06.947Z,102559.06
2018-12-24T01:41:35.998Z,102562.91
2018-12-24T01:44:05.124Z,102560.12
2018-12-24T01:46:34.187Z,102562.01
2018-12-24T01:49:03.423Z,102560.03
2018-12-24T01:51:32.529Z,102558.30
2018-12-24T01:54:01.608Z,102560.69
2018-12-24T01:56:30.787Z,102573.98
2018-12-24T01:58:59.978Z,102578.58
2018-12-24T02:01:29.026Z,102583.20
2018-12-24T02:03:58.064Z,102581.84
2018-12-24T02:06:27.168Z,102585.14
2018-12-24T02:08:56.296Z,102590.06
2018-12-24T02:11:25.349Z,102588.93
2018-12-24T02:13:54.382Z,102597.08
2018-12-24T02:16:23.422Z,102598.44
2018-12-24T02:18:52.595Z,102609.30
2018-12-24T02:21:21.669Z,102612.02
2018-12-24T02:23:50.733Z,102614.97
2018-12-24T02:26:19.783Z,102622.59
2018-12-24T02:28:48.822Z,102624.47
2018-12-24T02:31:17.976Z,102624.98
2018-12-24T02:33:47.068Z,102635.56
2018-12-24T02:36:16.219Z,102634.43
2018-12-24T02:38:45.389Z,102630.55
2018-12-24T02:41:14.502Z,102628.58
2018-12-24T02:43:43.600Z,102626.64
2018-12-24T02:46:12.626Z,102623.92
2018-12-24T02:48:41.700Z,102616.52
2018-12-24T02:51:10.751Z,102612.45
2018-12-24T02:53:41.038Z,102616.52
2018-12-24T02:56:10.960Z,102615.91
2018-12-24T02:58:41.757Z,102619.66
2018-12-24T03:01:10.832Z,102622.18
2018-12-24T03:03:39.896Z,102612.97
2018-12-24T03:06:09.037Z,102624.12
2018-12-24T03:08:38.293Z,102624.89
2018-12-24T03:11:07.365Z,102621.34
2018-12-24T03:13:36.524Z,102626.77
2018-12-24T03:16:06.505Z,102641.39
2018-12-24T03:18:35.797Z,102643.20
2018-12-24T03:21:05.024Z,102652.70
2018-12-24T03:23:34.092Z,102661.69
2018-12-24T03:26:03.800Z,102669.22
2018-12-24T03:28:33.018Z,102673.81
2018-12-24T03:31:02.263Z,102681.67
2018-12-24T03:33:31.550Z,102681.95
2018-12-24T03:36:00.758Z,102670.58
2018-12-24T03:38:29.954Z,102672.78
2018-12-24T03:40:59.004Z,102674.66
2018-12-24T03:43:28.575Z,102674.03
2018-12-24T03:46:00.578Z,102674.55
2018-12-24T03:48:29.739Z,102676.66
2018-12-24T03:51:00.471Z,102688.88
2018-12-24T03:53:31.118Z,102683.14
2018-12-24T03:56:03.146Z,102684.73
2018-12-24T03:58:32.453Z,102689.84
2018-12-24T04:01:02.190Z,102686.31
2018-12-24T04:03:32.080Z,102697.17
2018-12-24T04:09:04.631Z,102703.98
2018-12-24T04:11:33.710Z,102701.48
2018-12-24T04:14:02.762Z,102708.20
2018-12-24T04:16:31.808Z,102716.87
2018-12-24T04:19:00.905Z,102713.83
2018-12-24T04:21:29.946Z,102713.53
2018-12-24T04:23:59.084Z,102705.84
2018-12-24T04:26:28.253Z,102701.14
2018-12-24T04:28:57.338Z,102705.44
2018-12-24T04:31:26.512Z,102694.36
2018-12-24T04:33:55.584Z,102695.09
2018-12-24T04:36:24.652Z,102706.98
2018-12-24T04:38:53.783Z,102712.64
2018-12-24T04:41:22.806Z,102712.96
2018-12-24T04:43:51.898Z,102709.41
2018-12-24T04:46:21.023Z,102718.06
2018-12-24T04:48:50.209Z,102721.33
2018-12-24T04:51:19.247Z,102724.23
2018-12-24T04:53:48.388Z,102735.93
2018-12-24T04:56:17.485Z,102737.91
2018-12-24T04:58:46.580Z,102731.13
2018-12-24T05:01:15.657Z,102731.13
2018-12-24T05:03:44.740Z,102728.30
2018-12-24T05:06:13.790Z,102728.23
2018-12-24T05:08:42.855Z,102730.10
2018-12-24T05:11:12.062Z,102725.19
2018-12-24T05:13:41.274Z,102727.39
2018-12-24T05:16:10.383Z,102725.41
2018-12-24T05:18:39.519Z,102733.88
2018-12-24T05:21:09.264Z,102732.20
2018-12-24T05:23:38.543Z,102733.55
2018-12-24T05:26:07.760Z,102751.52
2018-12-24T05:28:36.899Z,102756.84
2018-12-24T05:31:06.244Z,102760.30
2018-12-24T05:33:35.442Z,102769.57
2018-12-24T05:36:04.544Z,102780.76
2018-12-24T05:38:33.591Z,102779.91
2018-12-24T05:41:02.683Z,102783.14
2018-12-24T05:43:31.748Z,102788.89
2018-12-24T05:46:00.822Z,102788.89
2018-12-24T05:48:29.940Z,102793.19
2018-12-24T05:50:59.029Z,102789.74
2018-12-24T05:53:28.096Z,102797.66
2018-12-24T05:55:57.327Z,102794.22
2018-12-24T05:58:26.366Z,102792.64
2018-12-24T06:00:55.545Z,102801.33
2018-12-24T06:03:24.722Z,102798.07
2018-12-24T06:05:53.799Z,102794.22
2018-12-24T06:08:22.836Z,102797.89
2018-12-24T06:10:52.215Z,102797.77
2018-12-24T06:13:21.283Z,102800.92
2018-12-24T06:15:50.312Z,102807.09
2018-12-24T06:18:20.175Z,102811.89
2018-12-24T06:20:49.378Z,102805.84
2018-12-24T06:23:18.416Z,102812.03
2018-12-24T06:25:47.471Z,102822.04
2018-12-24T06:28:16.499Z,102812.13
2018-12-24T06:30:45.698Z,102814.84
2018-12-24T06:33:14.739Z,102814.00
2018-12-24T06:35:43.783Z,102815.06
2018-12-24T06:38:12.868Z,102814.52
2018-12-24T06:40:41.992Z,102814.73
2018-12-24T06:43:11.070Z,102819.02
2018-12-24T06:45:40.131Z,102819.75
2018-12-24T06:48:09.278Z,102823.82
2018-12-24T06:50:38.299Z,102823.52
2018-12-24T06:53:07.391Z,102826.45
2018-12-24T06:55:36.446Z,102830.70
2018-12-24T06:58:05.547Z,102839.80
2018-12-24T07:00:34.573Z,102838.45
2018-12-24T07:03:08.179Z,102854.72
2018-12-24T07:05:37.428Z,102854.51
2018-12-24T07:08:06.454Z,102855.95
2018-12-24T07:10:35.638Z,102870.05
2018-12-24T07:13:04.747Z,102873.28
2018-12-24T07:15:33.910Z,102886.63
2018-12-24T07:18:03.100Z,102896.75
2018-12-24T07:20:32.176Z,102901.67
2018-12-24T07:23:01.210Z,102905.02
2018-12-24T07:25:30.264Z,102910.73
2018-12-24T07:27:59.465Z,102923.28
2018-12-24T07:30:28.494Z,102922.95
2018-12-24T07:32:57.616Z,102929.43
2018-12-24T07:35:26.674Z,102925.58
2018-12-24T07:37:55.779Z,102929.09
2018-12-24T07:40:25.060Z,102936.61
2018-12-24T07:42:54.116Z,102940.38
2018-12-24T07:45:23.176Z,102948.31
2018-12-24T07:47:52.193Z,102947.80
2018-12-24T07:50:21.228Z,102960.73
2018-12-24T07:52:50.281Z,102950.18
2018-12-24T07:55:19.769Z,102943.00
2018-12-24T07:57:48.911Z,102958.95
2018-12-24T08:00:18.066Z,102960.00
2018-12-24T08:02:47.130Z,102951.75
2018-12-24T08:05:20.515Z,102959.38
2018-12-24T08:07:49.599Z,102968.14
2018-12-24T08:10:18.725Z,102967.81
2018-12-24T08:12:47.972Z,102964.47
2018-12-24T08:15:17.036Z,102972.31
2018-12-24T08:17:46.193Z,102973.45
2018-12-24T08:20:15.475Z,102975.95
2018-12-24T08:22:44.606Z,102974.59
2018-12-24T08:25:14.057Z,102982.44
2018-12-24T08:27:43.231Z,102984.09
2018-12-24T08:30:12.844Z,102979.52
2018-12-24T08:32:41.974Z,102980.86
2018-12-24T08:35:11.064Z,102982.01
2018-12-24T08:37:40.123Z,102995.37
2018-12-24T08:40:09.266Z,102995.91
2018-12-24T08:42:38.806Z,103003.84
2018-12-24T08:45:12.029Z,103002.99
2018-12-24T08:47:41.326Z,103012.61
2018-12-24T08:50:10.474Z,103014.48
2018-12-24T08:52:39.905Z,103018.12
2018-12-24T08:55:09.179Z,103021.47
2018-12-24T08:57:38.234Z,103016.37
2018-12-24T09:00:11.141Z,103025.02
2018-12-24T09:02:40.273Z,103026.68
2018-12-24T09:05:14.640Z,103032.66
2018-12-24T09:07:44.050Z,103029.52
2018-12-24T09:10:13.072Z,103024.93
2018-12-24T09:12:42.485Z,103016.45
2018-12-24T09:15:11.851Z,103029.22
2018-12-24T09:17:41.069Z,103015.73
2018-12-24T09:20:10.232Z,103020.84
2018-12-24T09:22:39.331Z,103024.73
2018-12-24T09:25:08.609Z,103028.25
2018-12-24T09:27:37.630Z,103029.94
2018-12-24T09:30:09.297Z,103033.47
2018-12-24T09:32:38.494Z,103028.58
2018-12-24T09:35:07.559Z,103032.95
2018-12-24T09:37:36.743Z,103040.88
2018-12-24T09:40:10.417Z,103045.07
2018-12-24T09:42:39.698Z,103042.23
2018-12-24T09:45:08.739Z,103051.23
2018-12-24T09:47:40.838Z,103059.37
2018-12-24T09:50:14.372Z,103062.30
2018-12-24T09:52:44.233Z,103070.53
2018-12-24T09:55:13.377Z,103072.22
2018-12-24T09:57:42.478Z,103077.64
2018-12-24T10:00:14.945Z,103071.16
2018-12-24T10:05:40.697Z,103082.05
2018-12-24T10:08:18.331Z,103088.83
2018-12-24T10:10:48.784Z,103092.69
2018-12-24T10:13:18.615Z,103091.42
2018-12-24T10:15:49.171Z,103090.18
2018-12-24T10:18:18.428Z,103097.90
2018-12-24T10:20:47.521Z,103099.89
2018-12-24T10:23:18.358Z,103103.23
2018-12-24T10:25:47.657Z,103099.50
2018-12-24T10:28:21.814Z,103100.21
2018-12-24T10:30:52.534Z,103102.72
2018-12-24T10:33:27.174Z,103093.76
2018-12-24T10:35:57.119Z,103095.41
2018-12-24T10:38:30.844Z,103099.79
2018-12-24T10:41:08.569Z,103100.00
2018-12-24T10:43:37.830Z,103108.48
2018-12-24T10:46:10.135Z,103101.27
2018-12-24T10:48:39.633Z,103107.13
2018-12-24T10:51:08.805Z,103110.86
2018-12-24T10:53:41.228Z,103119.01
2018-12-24T10:56:12.017Z,103114.63
2018-12-24T10:58:52.505Z,103105.63
2018-12-24T11:01:25.408Z,103107.11
2018-12-24T11:04:00.906Z,103108.25
2018-12-24T11:06:30.718Z,103114.84
2018-12-24T11:09:04.440Z,103105.95
2018-12-24T11:11:34.425Z,103108.80
2018-12-24T11:14:04.700Z,103110.05
2018-12-24T11:16:35.068Z,103112.34
2018-12-24T11:19:05.743Z,103113.27
2018-12-24T11:21:36.269Z,103108.98
2018-12-24T11:24:06.978Z,103105.53
2018-12-24T11:26:36.292Z,103110.75
2018-12-24T11:29:08.577Z,103103.96
2018-12-24T11:31:49.937Z,103101.58
2018-12-24T11:34:19.345Z,103091.44
2018-12-24T11:36:48.445Z,103090.30
2018-12-24T11:39:19.094Z,103089.45
2018-12-24T11:41:51.961Z,103083.50
2018-12-24T11:44:25.469Z,103081.63
2018-12-24T11:46:57.543Z,103086.52
2018-12-24T11:52:38.590Z,103092.27
2018-12-24T11:55:09.555Z,103085.98
2018-12-24T11:57:38.283Z,103087.16
2018-12-24T12:00:24.673Z,103077.95
2018-12-24T12:02:55.091Z,103074.94
2018-12-24T12:05:26.790Z,103079.30
2018-12-24T12:11:01.552Z,103083.38
2018-12-24T12:18:59.135Z,103068.44
2018-12-24T12:21:50.307Z,103072.81
2018-12-24T12:27:25.250Z,103078.69
2018-12-24T12:31:31.425Z,103069.27
2018-12-24T12:34:02.676Z,103062.80
2018-12-24T12:36:31.706Z,103067.61
2018-12-24T12:39:00.875Z,103064.27
2018-12-24T12:41:30.059Z,103071.35
2018-12-24T12:44:00.539Z,103076.78
2018-12-24T12:46:29.620Z,103075.54
2018-12-24T12:48:58.684Z,103075.02
2018-12-24T12:51:32.317Z,103081.81
2018-12-24T12:54:06.516Z,103077.41
2018-12-24T12:56:43.369Z,103079.94
2018-12-24T12:59:14.183Z,103084.74
2018-12-24T13:01:43.252Z,103086.95
2018-12-24T13:04:12.993Z,103096.97
2018-12-24T13:06:44.039Z,103097.70
2018-12-24T13:09:14.910Z,103087.24
2018-12-24T13:11:51.289Z,103088.38
2018-12-24T13:14:20.450Z,103093.31
2018-12-24T13:16:52.961Z,103096.23
2018-12-24T13:19:24.440Z,103097.81
2018-12-24T13:22:04.297Z,103105.84
2018-12-24T13:24:29.896Z,103102.29
2018-12-24T13:27:00.275Z,103107.72
2018-12-24T13:29:29.940Z,103101.77
2018-12-24T13:34:49.118Z,103101.25
2018-12-24T13:37:19.281Z,103102.72
2018-12-24T13:39:48.645Z,103094.98
2018-12-24T13:42:19.885Z,103085.80
2018-12-24T13:44:48.954Z,103085.80
2018-12-24T13:47:18.086Z,103082.76
2018-12-24T13:49:51.935Z,103093.63
2018-12-24T13:52:19.765Z,103094.14
2018-12-24T13:54:48.897Z,103093.33
2018-12-24T13:57:19.095Z,103091.42
2018-12-24T13:59:51.662Z,103087.67
2018-12-24T14:02:33.984Z,103085.37
2018-12-24T14:05:03.439Z,103090.92
2018-12-24T14:07:34.214Z,103085.27
2018-12-24T14:10:04.479Z,103083.17
2018-12-24T14:12:33.509Z,103093.61
2018-12-24T14:15:12.231Z,103088.81
2018-12-24T14:17:47.664Z,103087.12
2018-12-24T14:20:17.374Z,103087.96
2018-12-24T14:22:46.371Z,103089.02
2018-12-24T14:25:16.047Z,103092.88
2018-12-24T14:27:45.179Z,103087.23
2018-12-24T14:30:14.201Z,103088.89
2018-12-24T14:32:44.215Z,103088.70
2018-12-24T14:35:13.440Z,103098.52
2018-12-24T14:37:43.530Z,103097.45
2018-12-24T14:40:13.906Z,103096.42
2018-12-24T14:42:43.001Z,103098.41
2018-12-24T14:45:12.188Z,103098.48
2018-12-24T14:47:41.331Z,103098.89
2018-12-24T14:50:10.500Z,103099.52
2018-12-24T14:52:39.879Z,103104.95
2018-12-24T14:55:12.104Z,103108.30
2018-12-24T14:57:41.775Z,103112.38
2018-12-24T15:00:10.980Z,103117.09
2018-12-24T15:02:39.991Z,103110.80
2018-12-24T15:05:09.316Z,103114.37
2018-12-24T15:07:38.368Z,103121.46
2018-12-24T15:10:07.565Z,103119.29
2018-12-24T15:12:36.787Z,103124.73
2018-12-24T15:15:06.223Z,103119.80
2018-12-24T15:17:37.443Z,103131.19
2018-12-24T15:20:07.338Z,103133.69
2018-12-24T15:22:37.176Z,103134.45
2018-12-24T15:25:07.459Z,103140.08
2018-12-24T15:27:36.676Z,103136.55
2018-12-24T15:30:07.270Z,103145.00
2018-12-24T15:32:36.568Z,103150.77
2018-12-24T15:35:05.993Z,103150.77
2018-12-24T15:37:35.290Z,103155.14
2018-12-24T15:40:04.425Z,103162.23
2018-12-24T15:42:33.440Z,103156.20
2018-12-24T15:45:02.540Z,103159.44
2018-12-24T15:47:31.717Z,103158.30
2018-12-24T15:50:04.140Z,103166.13
2018-12-24T15:52:33.331Z,103169.17
2018-12-24T15:55:03.864Z,103163.95
2018-12-24T15:57:33.032Z,103164.25
2018-12-24T16:00:02.010Z,103166.45
2018-12-24T16:02:31.002Z,103167.08
2018-12-24T16:05:00.152Z,103165.91
2018-12-24T16:07:29.505Z,103168.84
2018-12-24T16:09:58.540Z,103167.70
2018-12-24T16:12:28.228Z,103171.47
2018-12-24T16:14:57.262Z,103175.73
2018-12-24T16:17:26.284Z,103175.66
2018-12-24T16:19:56.433Z,103181.31
2018-12-24T16:22:25.479Z,103181.19
2018-12-24T16:24:54.683Z,103182.77
2018-12-24T16:27:23.717Z,103182.86
2018-12-24T16:29:52.818Z,103177.34
2018-12-24T16:32:21.844Z,103180.78
2018-12-24T16:34:50.893Z,103185.08
2018-12-24T16:37:19.902Z,103182.36
2018-12-24T16:39:53.352Z,103191.76
2018-12-24T16:42:23.522Z,103189.04
2018-12-24T16:44:52.828Z,103180.89
2018-12-24T16:47:21.883Z,103177.33
2018-12-24T16:49:51.077Z,103176.81
2018-12-24T16:52:20.127Z,103172.62
2018-12-24T16:54:51.356Z,103182.67
2018-12-24T16:57:20.654Z,103174.70
2018-12-24T16:59:49.782Z,103178.78
2018-12-24T17:02:18.813Z,103179.33
2018-12-24T17:04:47.844Z,103178.27
2018-12-24T17:07:17.649Z,103179.95
2018-12-24T17:10:00.624Z,103178.78
2018-12-24T17:12:29.923Z,103178.78
2018-12-24T17:14:58.973Z,103183.81
2018-12-24T17:17:29.146Z,103186.53
2018-12-24T17:20:01.571Z,103179.95
2018-12-24T17:22:30.705Z,103193.63
2018-12-24T17:24:59.746Z,103189.25
2018-12-24T17:27:28.745Z,103189.25
2018-12-24T17:29:57.743Z,103197.07
2018-12-24T17:32:27.178Z,103194.91
2018-12-24T17:34:56.183Z,103194.56
2018-12-24T17:37:25.232Z,103193.55
2018-12-24T17:39:54.239Z,103196.44
2018-12-24T17:42:23.414Z,103197.80
2018-12-24T17:44:52.530Z,103197.28
2018-12-24T17:47:21.708Z,103194.27
2018-12-24T17:49:51.687Z,103197.80
2018-12-24T17:52:20.872Z,103195.71
2018-12-24T17:54:50.938Z,103194.05
2018-12-24T17:57:20.011Z,103194.48
2018-12-24T17:59:50.996Z,103194.48
2018-12-24T18:02:20.042Z,103197.20
2018-12-24T18:04:49.180Z,103196.56
2018-12-24T18:07:18.745Z,103200.01
2018-12-24T18:09:47.765Z,103194.58
2018-12-24T18:12:17.268Z,103201.37
2018-12-24T18:14:46.408Z,103206.80
2018-12-24T18:17:15.628Z,103209.82
2018-12-24T18:19:45.233Z,103204.60
2018-12-24T18:22:14.355Z,103208.46
2018-12-24T18:24:43.408Z,103208.80
2018-12-24T18:27:12.428Z,103204.50
2018-12-24T18:29:41.726Z,103213.50
2018-12-24T18:32:10.732Z,103217.36
2018-12-24T18:34:40.512Z,103213.59
2018-12-24T18:37:09.502Z,103217.15
2018-12-24T18:39:38.542Z,103210.36
2018-12-24T18:42:07.542Z,103218.51
2018-12-24T18:44:36.542Z,103216.09
2018-12-24T18:47:05.957Z,103214.00
2018-12-24T18:49:35.306Z,103219.44
2018-12-24T18:52:04.085Z,103217.78
2018-12-24T18:54:33.177Z,103217.78
2018-12-24T18:57:02.310Z,103216.42
2018-12-24T18:59:31.388Z,103217.78
2018-12-24T19:02:00.556Z,103216.72
2018-12-24T19:04:30.674Z,103216.72
2018-12-24T19:06:59.714Z,103206.91
2018-12-24T19:09:28.741Z,103205.55
2018-12-24T19:11:57.990Z,103214.73
2018-12-24T19:14:27.043Z,103222.89
2018-12-24T19:16:56.185Z,103226.66
2018-12-24T19:19:25.265Z,103227.17
2018-12-24T19:21:55.025Z,103227.51
2018-12-24T19:24:24.019Z,103229.68
2018-12-24T19:26:54.096Z,103239.82
2018-12-24T19:29:23.113Z,103243.08
2018-12-24T19:31:55.983Z,103234.39
2018-12-24T19:34:25.163Z,103234.09
2018-12-24T19:36:54.178Z,103242.23
2018-12-24T19:39:23.384Z,103247.34
2018-12-24T19:41:52.435Z,103247.16
2018-12-24T19:44:21.465Z,103243.39
2018-12-24T19:46:51.530Z,103250.81
2018-12-24T19:49:20.598Z,103256.55
2018-12-24T19:51:49.621Z,103263.88
2018-12-24T19:54:18.729Z,103270.67
2018-12-24T19:56:48.815Z,103274.00
2018-12-24T19:59:17.826Z,103284.87
2018-12-24T20:01:47.059Z,103297.43
2018-12-24T20:04:16.048Z,103290.73
2018-12-24T20:06:45.144Z,103292.30
2018-12-24T20:09:16.250Z,103297.01
2018-12-24T20:11:44.133Z,103301.08
2018-12-24T20:14:13.308Z,103301.93
2018-12-24T20:16:42.350Z,103302.77
2018-12-24T20:19:11.400Z,103301.72
2018-12-24T20:21:40.404Z,103303.41
2018-12-24T20:24:10.292Z,103302.86
2018-12-24T20:26:39.318Z,103312.16
2018-12-24T20:29:09.494Z,103308.42
2018-12-24T20:31:38.573Z,103314.70
2018-12-24T20:34:07.579Z,103313.13
2018-12-24T20:36:36.576Z,103311.56
2018-12-24T20:39:08.892Z,103312.41
2018-12-24T20:41:37.963Z,103309.69
2018-12-24T20:44:07.094Z,103312.70
2018-12-24T20:46:36.183Z,103307.06
2018-12-24T20:49:05.328Z,103312.28
2018-12-24T20:51:34.340Z,103316.91
2018-12-24T20:54:04.273Z,103316.36
2018-12-24T20:56:33.474Z,103324.00
2018-12-24T20:59:02.468Z,103331.64
2018-12-24T21:01:31.512Z,103328.41
2018-12-24T21:04:00.574Z,103336.36
2018-12-24T21:06:29.764Z,103335.00
2018-12-24T21:08:59.131Z,103336.36
2018-12-24T21:11:28.167Z,103333.64
2018-12-24T21:13:57.157Z,103331.73
2018-12-24T21:16:26.316Z,103322.55
2018-12-24T21:18:55.307Z,103330.50
2018-12-24T21:21:24.343Z,103329.65
2018-12-24T21:23:53.374Z,103333.22
2018-12-24T21:26:22.421Z,103334.27
2018-12-24T21:28:51.444Z,103340.02
2018-12-24T21:31:20.574Z,103342.52
2018-12-24T21:33:49.698Z,103345.56
2018-12-24T21:36:19.037Z,103344.00
2018-12-24T21:38:48.062Z,103342.30
2018-12-24T21:41:17.095Z,103341.28
2018-12-24T21:43:46.107Z,103342.94
2018-12-24T21:46:15.183Z,103346.02
2018-12-24T21:48:44.192Z,103334.78
2018-12-24T21:51:13.370Z,103342.25
2018-12-24T21:53:42.465Z,103338.16
2018-12-24T21:56:11.507Z,103343.94
2018-12-24T21:58:40.652Z,103350.73
2018-12-24T22:01:09.724Z,103351.55
2018-12-24T22:03:38.837Z,103357.32
2018-12-24T22:06:07.999Z,103361.06
2018-12-24T22:08:37.071Z,103359.19
2018-12-24T22:11:07.500Z,103352.40
2018-12-24T22:13:36.519Z,103356.47
2018-12-24T22:16:05.592Z,103354.39
2018-12-24T22:18:34.703Z,103351.87
2018-12-24T22:21:05.035Z,103355.41
2018-12-24T22:23:34.687Z,103355.11
2018-12-24T22:26:03.738Z,103352.40
2018-12-24T22:28:32.753Z,103348.31
2018-12-24T22:31:01.795Z,103351.34
2018-12-24T22:33:30.824Z,103350.52
2018-12-24T22:35:59.867Z,103347.80
2018-12-24T22:38:28.918Z,103339.64
2018-12-24T22:41:04.649Z,103342.88
2018-12-24T22:43:33.694Z,103338.80
2018-12-24T22:46:03.250Z,103330.64
2018-12-24T22:48:40.484Z,103322.48
2018-12-24T22:51:01.474Z,103331.16
2018-12-24T22:53:30.495Z,103323.55
2018-12-24T22:55:59.600Z,103323.73
2018-12-24T22:58:28.785Z,103326.62
2018-12-24T23:00:58.026Z,103323.27
2018-12-24T23:03:27.167Z,103335.84
2018-12-24T23:05:56.998Z,103331.97
2018-12-24T23:08:26.214Z,103329.77
2018-12-24T23:10:55.274Z,103329.26
2018-12-24T23:13:24.983Z,103328.41
2018-12-24T23:15:54.062Z,103327.56
2018-12-24T23:18:23.155Z,103332.16
2018-12-24T23:20:52.207Z,103327.78
2018-12-24T23:23:21.322Z,103324.55
2018-12-24T23:25:50.417Z,103327.78
2018-12-24T23:28:20.587Z,103332.16
2018-12-24T23:30:52.770Z,103328.08
2018-12-24T23:33:21.902Z,103324.63
2018-12-24T23:35:51.951Z,103333.12
2018-12-24T23:38:21.576Z,103327.98
2018-12-24T23:40:50.658Z,103331.88
2018-12-24T23:43:19.738Z,103340.38
2018-12-24T23:45:51.010Z,103342.88
2018-12-24T23:48:20.499Z,103336.93
2018-12-24T23:50:49.533Z,103335.02
2018-12-24T23:53:19.747Z,103333.15
2018-12-24T23:55:48.788Z,103330.22
2018-12-24T23:58:17.923Z,103327.50
